createdAt,value
2019-04-07T00:00:37.097Z,38.83
2019-04-07T00:03:09.285Z,40.33
2019-04-07T00:05:41.665Z,43.17
2019-04-07T00:08:13.684Z,42.87
2019-04-07T00:10:45.625Z,45.53
2019-04-07T00:13:17.570Z,42.87
2019-04-07T00:15:50.008Z,44.80
2019-04-07T00:18:22.407Z,44.53
2019-04-07T00:20:56.466Z,44.50
2019-04-07T00:23:28.517Z,44.93
2019-04-07T00:26:00.469Z,42.70
2019-04-07T00:28:32.540Z,45.60
2019-04-07T00:31:05.111Z,41.57
2019-04-07T00:33:37.214Z,40.97
2019-04-07T00:36:09.753Z,46.23
2019-04-07T00:38:42.619Z,48.10
2019-04-07T00:41:15.978Z,46.87
2019-04-07T00:43:48.016Z,46.67
2019-04-07T00:46:20.161Z,49.00
2019-04-07T00:48:52.953Z,43.50
2019-04-07T00:51:25.595Z,44.63
2019-04-07T00:53:57.609Z,46.10
2019-04-07T00:56:30.061Z,45.73
2019-04-07T00:59:02.652Z,44.20
2019-04-07T01:01:35.037Z,46.97
2019-04-07T01:04:07.323Z,41.03
2019-04-07T01:06:39.486Z,50.50
2019-04-07T01:09:12.367Z,49.13
2019-04-07T01:11:44.392Z,45.50
2019-04-07T01:14:17.099Z,43.53
2019-04-07T01:17:01.061Z,44.00
2019-04-07T01:19:33.347Z,41.93
2019-04-07T01:22:05.540Z,47.10
2019-04-07T01:24:40.722Z,46.30
2019-04-07T01:27:13.168Z,48.07
2019-04-07T01:29:45.417Z,47.50
2019-04-07T01:32:17.546Z,41.80
2019-04-07T01:34:49.603Z,45.83
2019-04-07T01:37:21.847Z,43.90
2019-04-07T01:39:53.865Z,48.10
2019-04-07T01:42:28.079Z,43.33
2019-04-07T01:45:13.859Z,48.80
2019-04-07T01:48:02.688Z,42.73
2019-04-07T01:50:36.422Z,45.03
2019-04-07T01:53:15.963Z,51.87
2019-04-07T01:56:07.637Z,43.27
2019-04-07T01:58:44.019Z,47.03
2019-04-07T02:01:18.217Z,49.43
2019-04-07T02:04:08.144Z,44.57
2019-04-07T02:06:42.074Z,45.43
2019-04-07T02:09:16.185Z,42.83
2019-04-07T02:11:55.632Z,45.23
2019-04-07T02:14:29.218Z,44.83
2019-04-07T02:17:19.838Z,41.83
2019-04-07T02:19:53.678Z,51.53
2019-04-07T02:22:31.197Z,47.00
2019-04-07T02:25:22.600Z,47.63
2019-04-07T02:27:58.963Z,42.00
2019-04-07T02:30:33.163Z,46.97
2019-04-07T02:33:10.557Z,46.13
2019-04-07T02:35:48.022Z,50.50
2019-04-07T02:38:34.568Z,53.77
2019-04-07T02:41:10.947Z,54.87
2019-04-07T02:43:59.792Z,49.33
2019-04-07T02:46:33.369Z,55.40
2019-04-07T02:49:08.107Z,49.53
2019-04-07T02:51:45.506Z,51.80
2019-04-07T02:54:36.019Z,49.87
2019-04-07T02:57:15.874Z,44.80
2019-04-07T02:59:49.555Z,44.90
2019-04-07T03:02:25.946Z,48.43
2019-04-07T03:05:11.982Z,49.17
2019-04-07T03:07:54.997Z,47.27
2019-04-07T03:10:31.584Z,46.70
2019-04-07T03:13:10.906Z,44.83
2019-04-07T03:15:44.578Z,46.37
2019-04-07T03:18:18.421Z,43.30
2019-04-07T03:20:55.785Z,48.00
2019-04-07T03:23:32.371Z,41.13
2019-04-07T03:26:15.159Z,44.80
2019-04-07T03:28:49.388Z,50.27
2019-04-07T03:31:23.985Z,48.33
2019-04-07T03:34:01.876Z,52.83
2019-04-07T03:37:09.919Z,48.10
2019-04-07T03:39:20.521Z,50.27
2019-04-07T03:41:55.473Z,46.23
2019-04-07T03:44:38.139Z,46.33
2019-04-07T03:47:11.921Z,47.77
2019-04-07T03:49:45.863Z,47.70
2019-04-07T03:52:19.648Z,49.20
2019-04-07T03:55:02.281Z,44.90
2019-04-07T03:57:36.442Z,45.33
2019-04-07T04:00:23.250Z,51.37
2019-04-07T04:03:00.374Z,48.37
2019-04-07T04:05:43.379Z,47.50
2019-04-07T04:08:18.297Z,47.00
2019-04-07T04:11:08.133Z,47.63
2019-04-07T04:13:47.955Z,48.10
2019-04-07T04:16:20.162Z,46.57
2019-04-07T04:18:52.591Z,48.13
2019-04-07T04:21:24.606Z,44.97
2019-04-07T04:23:56.906Z,47.70
2019-04-07T04:26:29.760Z,47.27
2019-04-07T04:29:02.655Z,50.77
2019-04-07T04:31:35.728Z,46.83
2019-04-07T04:34:07.877Z,48.00
2019-04-07T04:36:40.496Z,47.57
2019-04-07T04:39:12.976Z,47.10
2019-04-07T04:41:46.684Z,44.20
2019-04-07T04:44:19.400Z,55.00
2019-04-07T04:46:51.337Z,47.67
2019-04-07T04:49:23.423Z,45.50
2019-04-07T04:51:56.056Z,51.63
2019-04-07T04:54:29.149Z,53.83
2019-04-07T04:57:04.125Z,43.23
2019-04-07T04:59:35.237Z,43.90
2019-04-07T05:02:07.795Z,44.87
2019-04-07T05:04:39.938Z,43.50
2019-04-07T05:07:12.445Z,40.23
2019-04-07T05:09:50.290Z,44.13
2019-04-07T05:12:18.100Z,48.47
2019-04-07T05:14:50.329Z,46.07
2019-04-07T05:17:23.182Z,48.83
2019-04-07T05:19:55.298Z,48.53
2019-04-07T05:22:27.932Z,44.53
2019-04-07T05:25:00.134Z,50.00
2019-04-07T05:27:32.714Z,42.03
2019-04-07T05:30:08.395Z,42.80
2019-04-07T05:32:40.940Z,40.33
2019-04-07T05:35:14.268Z,41.47
2019-04-07T05:37:46.253Z,42.43
2019-04-07T05:40:18.209Z,51.80
2019-04-07T05:42:50.978Z,49.70
2019-04-07T05:45:23.788Z,50.37
2019-04-07T05:47:55.798Z,41.27
2019-04-07T05:50:28.811Z,44.90
2019-04-07T05:53:00.992Z,46.93
2019-04-07T05:55:33.432Z,41.97
2019-04-07T05:58:07.296Z,47.77
2019-04-07T06:00:40.477Z,42.40
2019-04-07T06:03:12.528Z,44.73
2019-04-07T06:05:48.255Z,50.47
2019-04-07T06:08:25.984Z,45.50
2019-04-07T06:10:56.504Z,44.33
2019-04-07T06:13:25.507Z,45.53
2019-04-07T06:15:57.731Z,43.73
2019-04-07T06:18:33.872Z,46.67
2019-04-07T06:21:03.923Z,48.17
2019-04-07T06:23:36.428Z,43.77
2019-04-07T06:26:11.189Z,47.37
2019-04-07T06:28:42.398Z,41.77
2019-04-07T06:31:14.473Z,45.70
2019-04-07T06:33:46.840Z,45.30
2019-04-07T06:36:20.248Z,44.27
2019-04-07T06:38:52.880Z,47.17
2019-04-07T06:41:30.136Z,48.73
2019-04-07T06:44:10.174Z,43.17
2019-04-07T06:46:34.540Z,46.93
2019-04-07T06:49:20.700Z,43.70
2019-04-07T06:52:12.109Z,40.77
2019-04-07T06:54:57.822Z,42.27
2019-04-07T06:57:35.056Z,47.03
2019-04-07T07:00:11.515Z,47.93
2019-04-07T07:02:48.059Z,44.83
2019-04-07T07:05:38.791Z,42.73
2019-04-07T07:08:12.668Z,44.43
2019-04-07T07:10:50.617Z,43.30
2019-04-07T07:13:33.703Z,39.33
2019-04-07T07:16:17.839Z,48.40
2019-04-07T07:18:55.723Z,45.57
2019-04-07T07:21:33.997Z,39.17
2019-04-07T07:24:03.734Z,43.97
2019-04-07T07:26:36.665Z,41.17
2019-04-07T07:29:09.297Z,40.40
2019-04-07T07:31:41.325Z,47.97
2019-04-07T07:34:13.377Z,44.03
2019-04-07T07:36:46.770Z,41.07
2019-04-07T07:39:19.773Z,45.53
2019-04-07T07:41:52.798Z,39.47
2019-04-07T07:44:25.231Z,45.37
2019-04-07T07:46:58.127Z,48.10
2019-04-07T07:49:33.477Z,47.27
2019-04-07T07:52:03.857Z,37.47
2019-04-07T07:54:36.607Z,40.47
2019-04-07T07:57:09.020Z,41.03
2019-04-07T07:59:40.977Z,39.87
2019-04-07T08:02:16.799Z,49.40
2019-04-07T08:04:46.676Z,41.17
2019-04-07T08:07:19.353Z,32.73
2019-04-07T08:09:53.903Z,37.07
2019-04-07T08:12:25.530Z,42.33
2019-04-07T08:14:58.544Z,44.33
2019-04-07T08:17:33.137Z,38.07
2019-04-07T08:20:06.820Z,35.00
2019-04-07T08:22:43.014Z,37.03
2019-04-07T08:25:12.763Z,39.93
2019-04-07T08:27:45.258Z,41.27
2019-04-07T08:30:17.554Z,38.97
2019-04-07T08:32:50.065Z,34.83
2019-04-07T08:35:22.155Z,38.27
2019-04-07T08:37:54.525Z,37.13
2019-04-07T08:40:27.356Z,42.87
2019-04-07T08:42:59.464Z,32.43
2019-04-07T08:45:32.773Z,35.40
2019-04-07T08:48:05.235Z,41.43
2019-04-07T08:50:37.456Z,48.03
2019-04-07T08:53:12.295Z,34.73
2019-04-07T08:55:44.365Z,37.00
2019-04-07T08:58:25.164Z,35.73
2019-04-07T09:00:53.827Z,63.30
2019-04-07T09:03:25.409Z,38.17
2019-04-07T09:05:58.307Z,35.67
2019-04-07T09:08:30.743Z,37.20
2019-04-07T09:11:20.047Z,35.77
2019-04-07T09:13:52.596Z,38.60
2019-04-07T09:16:46.736Z,36.70
2019-04-07T09:19:25.461Z,32.20
2019-04-07T09:22:15.520Z,34.13
2019-04-07T09:24:55.079Z,34.27
2019-04-07T09:27:35.297Z,38.77
2019-04-07T09:30:11.049Z,37.63
2019-04-07T09:32:44.922Z,31.97
2019-04-07T09:35:22.758Z,34.87
2019-04-07T09:38:10.864Z,33.17
2019-04-07T09:41:02.700Z,34.27
2019-04-07T09:43:49.793Z,35.93
2019-04-07T09:46:42.702Z,30.60
2019-04-07T09:49:22.322Z,33.77
2019-04-07T09:52:01.379Z,31.27
2019-04-07T09:54:37.767Z,28.67
2019-04-07T09:57:21.168Z,27.80
2019-04-07T10:00:01.742Z,26.47
2019-04-07T10:02:38.449Z,25.97
2019-04-07T10:05:21.554Z,23.60
2019-04-07T10:08:13.605Z,28.67
2019-04-07T10:10:47.261Z,24.43
2019-04-07T10:13:36.981Z,28.17
2019-04-07T10:16:16.550Z,20.63
2019-04-07T10:18:56.540Z,28.17
2019-04-07T10:21:30.183Z,32.17
2019-04-07T10:24:20.215Z,26.87
2019-04-07T10:27:10.781Z,30.33
2019-04-07T10:29:59.277Z,29.73
2019-04-07T10:32:48.880Z,32.17
2019-04-07T10:35:25.346Z,32.53
2019-04-07T10:38:14.183Z,28.27
2019-04-07T10:40:47.766Z,28.73
2019-04-07T10:43:24.092Z,32.80
2019-04-07T10:46:14.639Z,29.10
2019-04-07T10:49:04.450Z,30.97
2019-04-07T10:51:53.381Z,32.63
2019-04-07T10:54:30.104Z,33.43
2019-04-07T10:57:04.296Z,32.97
2019-04-07T10:59:51.250Z,30.17
2019-04-07T11:02:41.463Z,28.63
2019-04-07T11:05:24.469Z,25.73
2019-04-07T11:08:00.802Z,27.23
2019-04-07T11:10:50.810Z,30.30
2019-04-07T11:13:40.363Z,27.67
2019-04-07T11:16:22.942Z,24.67
2019-04-07T11:18:56.623Z,26.37
2019-04-07T11:21:30.446Z,25.97
2019-04-07T11:24:04.086Z,29.63
2019-04-07T11:26:52.843Z,26.87
2019-04-07T11:29:39.603Z,27.03
2019-04-07T11:32:26.064Z,30.63
2019-04-07T11:34:59.840Z,29.33
2019-04-07T11:37:42.947Z,23.87
2019-04-07T11:40:17.212Z,29.07
2019-04-07T11:43:13.070Z,26.00
2019-04-07T11:46:01.013Z,20.93
2019-04-07T11:48:44.953Z,27.17
2019-04-07T11:51:21.590Z,26.07
2019-04-07T11:54:04.120Z,27.73
2019-04-07T11:56:38.313Z,25.77
2019-04-07T11:59:28.535Z,25.93
2019-04-07T12:02:03.521Z,26.97
2019-04-07T12:04:38.024Z,27.40
2019-04-07T12:07:26.397Z,27.23
2019-04-07T12:10:03.143Z,32.07
2019-04-07T12:12:46.198Z,28.90
2019-04-07T12:15:35.896Z,24.90
2019-04-07T12:18:21.581Z,35.90
2019-04-07T12:20:55.249Z,33.50
2019-04-07T12:23:32.740Z,29.57
2019-04-07T12:26:22.454Z,29.60
2019-04-07T12:28:58.523Z,29.67
2019-04-07T12:31:34.863Z,29.83
2019-04-07T12:34:23.532Z,30.30
2019-04-07T12:36:59.168Z,38.37
2019-04-07T12:39:38.690Z,28.53
2019-04-07T12:42:13.409Z,26.97
2019-04-07T12:45:03.646Z,30.30
2019-04-07T12:47:43.048Z,31.40
2019-04-07T12:50:33.810Z,29.37
2019-04-07T12:53:13.572Z,28.27
2019-04-07T12:55:55.019Z,22.90
2019-04-07T12:58:39.311Z,30.03
2019-04-07T13:01:19.934Z,25.80
2019-04-07T13:03:54.748Z,27.83
2019-04-07T13:06:45.299Z,29.83
2019-04-07T13:09:30.981Z,33.53
2019-04-07T13:12:04.031Z,27.03
2019-04-07T13:14:43.993Z,32.70
2019-04-07T13:17:34.212Z,30.63
2019-04-07T13:20:23.389Z,33.57
2019-04-07T13:23:12.380Z,27.97
2019-04-07T13:25:46.256Z,35.07
2019-04-07T13:28:20.641Z,29.30
2019-04-07T13:30:54.847Z,33.70
2019-04-07T13:33:29.546Z,32.97
2019-04-07T13:36:09.332Z,33.77
2019-04-07T13:38:45.842Z,32.90
2019-04-07T13:41:40.846Z,30.57
2019-04-07T13:44:23.277Z,34.13
2019-04-07T13:47:30.527Z,41.63
2019-04-07T13:50:16.451Z,32.93
2019-04-07T13:52:56.122Z,35.53
2019-04-07T13:55:28.600Z,34.67
2019-04-07T13:58:05.479Z,34.87
2019-04-07T14:00:51.970Z,32.07
2019-04-07T14:03:41.718Z,37.67
2019-04-07T14:06:18.298Z,36.00
2019-04-07T14:09:07.753Z,35.53
2019-04-07T14:11:57.384Z,52.27
2019-04-07T14:14:25.588Z,39.87
2019-04-07T14:17:08.382Z,39.07
2019-04-07T14:19:50.961Z,37.23
2019-04-07T14:22:42.182Z,38.30
2019-04-07T14:25:24.679Z,35.67
2019-04-07T14:28:04.707Z,31.67
2019-04-07T14:30:44.465Z,39.23
2019-04-07T14:33:35.995Z,33.70
2019-04-07T14:36:16.083Z,32.20
2019-04-07T14:39:05.317Z,38.07
2019-04-07T14:42:03.315Z,36.43
2019-04-07T14:44:30.442Z,33.10
2019-04-07T14:47:14.020Z,37.63
2019-04-07T14:50:04.908Z,30.87
2019-04-07T14:52:54.815Z,31.33
2019-04-07T14:55:37.884Z,35.10
2019-04-07T14:58:18.997Z,30.40
2019-04-07T15:00:52.911Z,28.43
2019-04-07T15:03:24.951Z,27.83
2019-04-07T15:05:58.218Z,31.50
2019-04-07T15:08:38.212Z,31.90
2019-04-07T15:11:24.870Z,34.73
2019-04-07T15:14:00.108Z,31.83
2019-04-07T15:16:31.683Z,30.93
2019-04-07T15:19:06.557Z,31.97
2019-04-07T15:21:38.844Z,32.80
2019-04-07T15:24:11.236Z,28.70
2019-04-07T15:26:46.995Z,29.50
2019-04-07T15:29:17.117Z,31.23
2019-04-07T15:31:51.049Z,33.33
2019-04-07T15:34:24.109Z,33.33
2019-04-07T15:36:56.851Z,31.77
2019-04-07T15:39:30.308Z,34.10
2019-04-07T15:42:03.204Z,40.77
2019-04-07T15:44:39.092Z,33.17
2019-04-07T15:47:09.357Z,35.80
2019-04-07T15:49:41.941Z,33.33
2019-04-07T15:52:13.953Z,33.70
2019-04-07T15:54:46.835Z,35.43
2019-04-07T15:57:21.694Z,38.07
2019-04-07T15:59:52.883Z,31.30
2019-04-07T16:02:25.783Z,38.80
2019-04-07T16:05:02.186Z,31.20
2019-04-07T16:07:31.746Z,28.03
2019-04-07T16:10:05.851Z,30.23
2019-04-07T16:12:46.571Z,30.27
2019-04-07T16:15:15.851Z,32.63
2019-04-07T16:17:47.424Z,34.80
2019-04-07T16:20:24.702Z,35.63
2019-04-07T16:22:55.360Z,29.90
2019-04-07T16:25:29.108Z,24.27
2019-04-07T16:28:02.370Z,22.80
2019-04-07T16:30:34.605Z,25.07
2019-04-07T16:33:07.686Z,23.70
2019-04-07T16:35:41.065Z,20.47
2019-04-07T16:38:16.289Z,31.37
2019-04-07T16:40:49.086Z,31.03
2019-04-07T16:43:22.070Z,23.90
2019-04-07T16:45:54.757Z,23.07
2019-04-07T16:48:26.942Z,25.13
2019-04-07T16:51:02.013Z,27.80
2019-04-07T16:53:36.452Z,28.37
2019-04-07T16:56:07.876Z,31.53
2019-04-07T16:58:40.239Z,32.97
2019-04-07T17:01:13.123Z,29.37
2019-04-07T17:03:45.346Z,28.47
2019-04-07T17:06:22.814Z,39.73
2019-04-07T17:09:00.334Z,32.10
2019-04-07T17:11:36.971Z,28.70
2019-04-07T17:14:06.301Z,30.70
2019-04-07T17:16:39.802Z,32.63
2019-04-07T17:19:12.003Z,33.60
2019-04-07T17:21:44.987Z,32.77
2019-04-07T17:24:17.409Z,29.07
2019-04-07T17:26:52.870Z,30.63
2019-04-07T17:29:27.791Z,33.77
2019-04-07T17:32:01.733Z,28.83
2019-04-07T17:34:33.703Z,40.07
2019-04-07T17:37:05.795Z,33.97
2019-04-07T17:39:48.229Z,31.30
2019-04-07T17:42:23.563Z,34.47
2019-04-07T17:44:59.333Z,34.33
2019-04-07T17:47:45.215Z,37.67
2019-04-07T17:50:20.040Z,31.90
2019-04-07T17:52:53.947Z,35.07
2019-04-07T17:55:28.923Z,32.53
2019-04-07T17:58:10.183Z,35.67
2019-04-07T18:00:47.707Z,35.47
2019-04-07T18:03:19.551Z,32.40
2019-04-07T18:06:05.786Z,34.10
2019-04-07T18:08:45.348Z,35.90
2019-04-07T18:11:18.852Z,34.10
2019-04-07T18:13:56.674Z,37.47
2019-04-07T18:16:39.680Z,35.73
2019-04-07T18:19:31.496Z,34.30
2019-04-07T18:22:10.766Z,37.27
2019-04-07T18:24:44.955Z,39.43
2019-04-07T18:27:35.169Z,38.00
2019-04-07T18:30:25.867Z,36.70
2019-04-07T18:33:12.948Z,44.50
2019-04-07T18:35:47.183Z,39.23
2019-04-07T18:38:24.101Z,35.33
2019-04-07T18:41:14.561Z,35.57
2019-04-07T18:44:08.129Z,37.87
2019-04-07T18:46:52.356Z,37.50
2019-04-07T18:49:25.922Z,45.57
2019-04-07T18:52:22.290Z,39.20
2019-04-07T18:54:57.487Z,40.43
2019-04-07T18:57:31.665Z,37.47
2019-04-07T19:00:15.702Z,39.97
2019-04-07T19:03:02.350Z,35.20
2019-04-07T19:05:38.791Z,37.37
2019-04-07T19:08:12.665Z,43.03
2019-04-07T19:11:12.459Z,45.63
2019-04-07T19:13:41.341Z,40.83
2019-04-07T19:16:27.699Z,43.30
2019-04-07T19:19:16.535Z,40.27
2019-04-07T19:21:53.726Z,37.53
2019-04-07T19:24:35.613Z,41.30
2019-04-07T19:27:22.105Z,39.80
2019-04-07T19:30:11.575Z,39.70
2019-04-07T19:32:48.440Z,37.63
2019-04-07T19:35:40.687Z,39.63
2019-04-07T19:38:17.153Z,42.80
2019-04-07T19:41:07.543Z,44.00
2019-04-07T19:43:59.250Z,40.10
2019-04-07T19:46:49.247Z,41.40
2019-04-07T19:49:28.864Z,41.50
2019-04-07T19:52:18.637Z,45.03
2019-04-07T19:54:52.911Z,43.77
2019-04-07T19:57:29.935Z,41.57
2019-04-07T20:00:24.634Z,44.10
2019-04-07T20:02:55.396Z,42.33
2019-04-07T20:05:44.242Z,39.70
2019-04-07T20:08:27.004Z,41.07
2019-04-07T20:11:17.986Z,37.40
2019-04-07T20:13:59.137Z,37.83
2019-04-07T20:16:38.461Z,50.57
2019-04-07T20:19:18.746Z,45.77
2019-04-07T20:21:56.816Z,39.87
2019-04-07T20:24:34.589Z,40.07
2019-04-07T20:27:08.851Z,36.63
2019-04-07T20:29:52.236Z,44.03
2019-04-07T20:32:33.826Z,48.03
2019-04-07T20:35:19.078Z,41.20
2019-04-07T20:38:10.584Z,58.83
2019-04-07T20:40:46.456Z,48.57
2019-04-07T20:43:33.005Z,44.97
2019-04-07T20:46:09.487Z,42.73
2019-04-07T20:49:00.418Z,47.57
2019-04-07T20:51:50.653Z,46.00
2019-04-07T20:54:21.613Z,47.10
2019-04-07T20:56:57.860Z,51.27
2019-04-07T20:59:48.413Z,44.27
2019-04-07T21:02:29.310Z,48.47
2019-04-07T21:05:10.235Z,47.50
2019-04-07T21:07:47.076Z,44.33
2019-04-07T21:10:33.195Z,50.03
2019-04-07T21:13:07.669Z,44.47
2019-04-07T21:15:57.352Z,42.97
2019-04-07T21:18:32.397Z,40.80
2019-04-07T21:21:07.044Z,49.83
2019-04-07T21:23:58.038Z,43.53
2019-04-07T21:26:34.643Z,45.13
2019-04-07T21:29:11.511Z,46.20
2019-04-07T21:31:48.806Z,45.00
2019-04-07T21:34:29.787Z,43.70
2019-04-07T21:37:15.183Z,45.27
2019-04-07T21:39:54.315Z,47.87
2019-04-07T21:42:40.243Z,46.27
2019-04-07T21:45:36.822Z,45.83
2019-04-07T21:48:16.673Z,49.50
2019-04-07T21:50:53.694Z,43.90
2019-04-07T21:53:30.322Z,45.43
2019-04-07T21:56:19.964Z,52.03
2019-04-07T21:59:08.756Z,46.10
2019-04-07T22:01:43.313Z,39.93
2019-04-07T22:04:25.441Z,44.27
2019-04-07T22:07:04.783Z,42.03
2019-04-07T22:09:38.639Z,45.23
2019-04-07T22:12:10.707Z,47.13
2019-04-07T22:14:44.196Z,44.80
2019-04-07T22:17:16.323Z,53.07
2019-04-07T22:19:49.156Z,41.83
2019-04-07T22:22:24.103Z,48.63
2019-04-07T22:24:55.944Z,44.57
2019-04-07T22:27:28.691Z,43.53
2019-04-07T22:30:04.475Z,48.73
2019-04-07T22:32:35.268Z,42.93
2019-04-07T22:35:08.461Z,41.13
2019-04-07T22:37:40.475Z,43.93
2019-04-07T22:40:19.291Z,43.73
2019-04-07T22:42:51.410Z,42.67
2019-04-07T22:45:26.480Z,41.20
2019-04-07T22:47:57.221Z,38.70
2019-04-07T22:50:29.158Z,52.57
2019-04-07T22:53:01.698Z,43.13
2019-04-07T22:55:35.921Z,45.47
2019-04-07T22:58:07.606Z,48.03
2019-04-07T23:00:40.342Z,47.50
2019-04-07T23:03:12.366Z,53.73
2019-04-07T23:05:44.624Z,43.77
2019-04-07T23:08:16.827Z,53.67
2019-04-07T23:10:49.727Z,48.10
2019-04-07T23:13:21.798Z,47.00
2019-04-07T23:16:05.976Z,52.10
2019-04-07T23:18:27.665Z,49.17
2019-04-07T23:20:59.934Z,47.87
2019-04-07T23:23:32.312Z,47.53
2019-04-07T23:26:05.475Z,50.53
2019-04-07T23:28:37.415Z,51.50
2019-04-07T23:31:09.663Z,51.53
2019-04-07T23:33:41.822Z,58.73
2019-04-07T23:36:13.924Z,52.47
2019-04-07T23:38:45.873Z,57.10
2019-04-07T23:41:18.198Z,49.33
2019-04-07T23:43:50.562Z,49.57
2019-04-07T23:46:25.038Z,45.20
2019-04-07T23:48:56.807Z,55.40
2019-04-07T23:51:29.193Z,48.20
2019-04-07T23:54:09.215Z,47.60
2019-04-07T23:56:43.866Z,44.93
2019-04-07T23:59:16.765Z,42.20
